createdAt,value
2019-01-12T00:00:00.581Z,57.9
2019-01-12T00:00:50.651Z,57.9
2019-01-12T00:01:40.706Z,57.9
2019-01-12T00:02:30.185Z,57.8
2019-01-12T00:03:21.078Z,57.8
2019-01-12T00:04:10.855Z,57.8
2019-01-12T00:05:01.205Z,57.8
2019-01-12T00:05:51.533Z,57.8
2019-01-12T00:06:41.658Z,57.8
2019-01-12T00:07:31.146Z,57.8
2019-01-12T00:08:21.463Z,57.8
2019-01-12T00:34:13.590Z,57.6
2019-01-12T00:35:03.609Z,57.6
2019-01-12T00:35:54.206Z,57.6
2019-01-12T00:36:43.979Z,57.6
2019-01-12T00:37:33.804Z,57.6
2019-01-12T00:38:24.362Z,57.6
2019-01-12T00:39:13.643Z,57.6
2019-01-12T00:40:04.221Z,57.6
2019-01-12T00:40:54.528Z,57.5
2019-01-12T00:41:43.748Z,57.6
2019-01-12T00:42:34.366Z,57.5
2019-01-12T00:43:24.463Z,57.5
2019-01-12T00:44:13.367Z,57.5
2019-01-12T00:45:04.544Z,57.5
2019-01-12T00:45:54.601Z,57.5
2019-01-12T00:46:44.370Z,57.5
2019-01-12T00:47:36.632Z,57.5
2019-01-12T00:48:23.985Z,57.5
2019-01-12T00:49:14.813Z,57.4
2019-01-12T00:50:04.598Z,57.5
2019-01-12T00:50:54.930Z,57.4
2019-01-12T00:51:44.751Z,57.4
2019-01-12T00:52:35.035Z,57.4
2019-01-12T00:53:24.580Z,57.4
2019-01-12T00:54:14.881Z,57.4
2019-01-12T00:55:04.946Z,57.4
2019-01-12T00:55:54.995Z,57.4
2019-01-12T00:56:45.052Z,57.4
2019-01-12T00:57:35.387Z,57.4
2019-01-12T00:58:25.157Z,57.4
2019-01-12T00:59:15.283Z,57.4
2019-01-12T01:00:05.840Z,57.4
2019-01-12T01:00:55.415Z,57.4
2019-01-12T01:01:45.195Z,57.4
2019-01-12T01:02:35.514Z,57.4
2019-01-12T01:03:25.285Z,57.4
2019-01-12T01:04:15.619Z,57.4
2019-01-12T01:05:05.185Z,57.4
2019-01-12T01:05:55.494Z,57.4
2019-01-12T01:06:45.238Z,57.3
2019-01-12T01:07:36.064Z,57.3
2019-01-12T01:08:25.559Z,57.3
2019-01-12T01:09:15.512Z,57.3
2019-01-12T01:10:05.779Z,57.3
2019-01-12T01:10:55.756Z,57.3
2019-01-12T01:11:45.799Z,57.3
2019-01-12T01:12:35.854Z,57.3
2019-01-12T01:13:25.916Z,57.3
2019-01-12T01:14:16.795Z,57.3
2019-01-12T01:15:06.946Z,57.3
2019-01-12T01:15:55.868Z,57.3
2019-01-12T01:16:45.939Z,57.3
2019-01-12T01:17:35.995Z,57.3
2019-01-12T01:18:26.312Z,57.3
2019-01-12T01:19:16.099Z,57.3
2019-01-12T01:20:06.646Z,57.3
2019-01-12T01:20:56.686Z,57.3
2019-01-12T01:21:46.199Z,57.3
2019-01-12T01:22:37.093Z,57.3
2019-01-12T01:23:26.861Z,57.2
2019-01-12T01:24:17.473Z,57.2
2019-01-12T01:25:07.371Z,57.2
2019-01-12T01:25:57.330Z,57.2
2019-01-12T01:26:47.641Z,57.2
2019-01-12T01:27:37.428Z,57.2
2019-01-12T01:28:27.198Z,57.2
2019-01-12T01:29:17.553Z,57.1
2019-01-12T01:30:07.601Z,57.1
2019-01-12T01:30:57.434Z,57.1
2019-01-12T01:31:47.161Z,57.1
2019-01-12T01:32:37.550Z,57.1
2019-01-12T01:33:32.523Z,57.1
2019-01-12T01:34:17.865Z,57.1
2019-01-12T01:35:07.438Z,57.1
2019-01-12T01:35:58.263Z,57.1
2019-01-12T01:36:48.050Z,57.1
2019-01-12T01:37:38.375Z,57.1
2019-01-12T01:38:28.145Z,57.1
2019-01-12T01:39:17.948Z,57.1
2019-01-12T01:40:07.430Z,57.1
2019-01-12T01:40:58.590Z,57.1
2019-01-12T01:41:47.897Z,57.1
2019-01-12T01:42:37.963Z,57.1
2019-01-12T01:43:28.024Z,57.1
2019-01-12T01:44:17.295Z,57.1
2019-01-12T01:45:08.189Z,57
2019-01-12T01:45:57.681Z,57.1
2019-01-12T01:46:48.439Z,57
2019-01-12T01:47:38.552Z,57
2019-01-12T01:48:29.119Z,57
2019-01-12T01:49:18.339Z,57
2019-01-12T01:50:09.217Z,57
2019-01-12T01:50:59.014Z,57
2019-01-12T01:51:48.789Z,57
2019-01-12T01:52:38.839Z,57
2019-01-12T01:53:28.350Z,57
2019-01-12T01:54:19.504Z,56.9
2019-01-12T01:55:08.734Z,56.9
2019-01-12T01:55:58.785Z,56.9
2019-01-12T01:56:48.893Z,56.9
2019-01-12T01:57:39.484Z,56.9
2019-01-12T01:58:29.246Z,56.9
2019-01-12T01:59:19.854Z,56.9
2019-01-12T02:00:09.638Z,56.9
2019-01-12T02:00:59.981Z,56.9
2019-01-12T02:01:49.246Z,56.9
2019-01-12T02:02:40.063Z,56.9
2019-01-12T02:03:29.851Z,56.9
2019-01-12T02:04:19.914Z,56.9
2019-01-12T02:05:09.690Z,56.9
2019-01-12T02:05:59.188Z,56.9
2019-01-12T02:06:50.081Z,56.9
2019-01-12T02:07:40.117Z,56.9
2019-01-12T02:08:30.265Z,56.9
2019-01-12T02:09:20.513Z,56.9
2019-01-12T02:10:10.610Z,56.8
2019-01-12T02:10:59.803Z,56.8
2019-01-12T02:11:50.713Z,56.8
2019-01-12T02:12:39.983Z,56.8
2019-01-12T02:13:29.713Z,56.8
2019-01-12T02:14:20.575Z,56.8
2019-01-12T02:15:10.110Z,56.8
2019-01-12T02:16:00.703Z,56.8
2019-01-12T02:16:50.490Z,56.8
2019-01-12T02:17:40.855Z,56.8
2019-01-12T02:18:30.890Z,56.8
2019-01-12T02:19:20.662Z,56.8
2019-01-12T02:20:10.787Z,56.8
2019-01-12T02:21:00.775Z,56.8
2019-01-12T02:21:51.107Z,56.8
2019-01-12T02:22:41.447Z,56.8
2019-01-12T02:23:31.206Z,56.8
2019-01-12T02:24:21.027Z,56.8
2019-01-12T02:25:11.344Z,56.8
2019-01-12T02:26:01.660Z,56.8
2019-01-12T02:26:50.607Z,56.7
2019-01-12T02:27:41.198Z,56.8
2019-01-12T02:28:31.837Z,56.8
2019-01-12T02:29:21.597Z,56.7
2019-01-12T02:30:11.434Z,56.7
2019-01-12T02:31:01.744Z,56.7
2019-01-12T02:31:51.559Z,56.7
2019-01-12T02:32:41.910Z,56.7
2019-01-12T02:33:32.173Z,56.7
2019-01-12T02:34:22.043Z,56.7
2019-01-12T02:35:12.044Z,56.6
2019-01-12T02:36:02.079Z,56.6
2019-01-12T02:36:52.527Z,56.6
2019-01-12T02:37:42.171Z,56.6
2019-01-12T02:38:31.972Z,56.6
2019-01-12T02:39:22.303Z,56.6
2019-01-12T02:40:11.661Z,56.6
2019-01-12T02:41:01.654Z,56.6
2019-01-12T02:41:52.209Z,56.6
2019-01-12T02:42:42.239Z,56.6
2019-01-12T02:43:31.764Z,56.6
2019-01-12T02:44:22.644Z,56.6
2019-01-12T02:45:12.432Z,56.6
2019-01-12T02:46:03.069Z,56.6
2019-01-12T02:46:52.260Z,56.6
2019-01-12T02:47:42.628Z,56.6
2019-01-12T02:48:32.918Z,56.6
2019-01-12T02:49:23.006Z,56.6
2019-01-12T02:50:13.341Z,56.6
2019-01-12T02:51:02.546Z,56.6
2019-01-12T02:51:52.888Z,56.5
2019-01-12T02:52:42.951Z,56.5
2019-01-12T02:53:33.263Z,56.5
2019-01-12T02:54:23.030Z,56.5
2019-01-12T02:55:13.569Z,56.5
2019-01-12T02:56:03.216Z,56.5
2019-01-12T02:56:53.495Z,56.5
2019-01-12T02:57:43.357Z,56.5
2019-01-12T02:58:33.887Z,56.4
2019-01-12T02:59:23.390Z,56.4
2019-01-12T03:00:14.031Z,56.4
2019-01-12T03:01:03.858Z,56.4
2019-01-12T03:01:54.100Z,56.4
2019-01-12T03:02:43.625Z,56.4
2019-01-12T03:03:33.402Z,56.4
2019-01-12T03:04:23.451Z,56.4
2019-01-12T03:05:14.090Z,56.4
2019-01-12T03:06:04.197Z,56.4
2019-01-12T03:06:54.177Z,56.4
2019-01-12T03:07:43.759Z,56.4
2019-01-12T03:08:34.302Z,56.4
2019-01-12T03:09:24.317Z,56.4
2019-01-12T03:10:14.457Z,56.4
2019-01-12T03:11:04.744Z,56.4
2019-01-12T03:11:54.785Z,56.4
2019-01-12T03:12:44.285Z,56.4
2019-01-12T03:13:34.926Z,56.4
2019-01-12T03:14:24.176Z,56.4
2019-01-12T03:15:13.944Z,56.3
2019-01-12T03:16:04.292Z,56.3
2019-01-12T03:16:54.879Z,56.3
2019-01-12T03:17:44.967Z,56.3
2019-01-12T03:18:35.237Z,56.3
2019-01-12T03:19:25.062Z,56.3
2019-01-12T03:20:14.815Z,56.3
2019-01-12T03:21:05.206Z,56.3
2019-01-12T03:21:55.496Z,56.3
2019-01-12T03:22:45.572Z,56.3
2019-01-12T03:23:35.083Z,56.3
2019-01-12T03:24:25.366Z,56.3
2019-01-12T03:25:23.834Z,56.3
2019-01-12T03:26:04.976Z,56.3
2019-01-12T03:26:55.548Z,56.3
2019-01-12T03:27:44.793Z,56.3
2019-01-12T03:28:35.705Z,56.3
2019-01-12T03:29:25.453Z,56.3
2019-01-12T03:30:15.604Z,56.3
2019-01-12T03:31:06.292Z,56.2
2019-01-12T03:31:56.105Z,56.2
2019-01-12T03:32:45.525Z,56.2
2019-01-12T03:33:36.385Z,56.2
2019-01-12T03:34:26.045Z,56.2
2019-01-12T03:35:15.849Z,56.2
2019-01-12T03:36:05.315Z,56.2
2019-01-12T03:36:55.636Z,56.2
2019-01-12T03:37:46.292Z,56.2
2019-01-12T03:38:35.493Z,56.2
2019-01-12T03:39:26.105Z,56.1
2019-01-12T03:40:16.745Z,56.1
2019-01-12T03:41:06.802Z,56.2
2019-01-12T03:41:55.740Z,56.1
2019-01-12T03:42:46.317Z,56.1
2019-01-12T03:43:36.949Z,56.1
2019-01-12T03:44:26.736Z,56.1
2019-01-12T03:45:16.790Z,56.1
2019-01-12T03:46:06.379Z,56.1
2019-01-12T03:46:57.142Z,56.1
2019-01-12T03:47:47.028Z,56.1
2019-01-12T03:48:36.738Z,56.1
2019-01-12T03:49:27.077Z,56.1
2019-01-12T03:50:17.122Z,56.1
2019-01-12T03:51:06.622Z,56.1
2019-01-12T03:51:57.204Z,56.1
2019-01-12T03:52:47.585Z,56.1
2019-01-12T03:53:37.069Z,56.1
2019-01-12T03:54:27.114Z,56.1
2019-01-12T03:55:25.177Z,56.1
2019-01-12T03:56:07.275Z,56
2019-01-12T03:56:57.326Z,56.1
2019-01-12T03:57:47.650Z,56
2019-01-12T03:58:37.185Z,56
2019-01-12T03:59:28.003Z,56
2019-01-12T04:00:17.843Z,56
2019-01-12T04:01:08.210Z,56
2019-01-12T04:01:57.960Z,56
2019-01-12T04:02:48.261Z,55.9
2019-01-12T04:03:37.781Z,55.9
2019-01-12T04:04:28.097Z,55.9
2019-01-12T04:05:18.141Z,55.9
2019-01-12T04:06:08.461Z,55.9
2019-01-12T04:06:57.968Z,55.9
2019-01-12T04:07:48.301Z,55.9
2019-01-12T04:08:38.358Z,55.9
2019-01-12T04:09:28.163Z,55.9
2019-01-12T04:10:18.783Z,55.9
2019-01-12T04:11:08.848Z,55.9
2019-01-12T04:11:58.315Z,55.9
2019-01-12T04:12:48.650Z,55.9
2019-01-12T04:13:38.708Z,55.9
2019-01-12T04:14:28.757Z,55.9
2019-01-12T04:15:19.117Z,55.9
2019-01-12T04:16:08.871Z,55.9
2019-01-12T04:16:58.935Z,55.9
2019-01-12T04:17:49.060Z,55.9
2019-01-12T04:18:38.733Z,55.9
2019-01-12T04:19:29.097Z,55.8
2019-01-12T04:20:18.651Z,55.8
2019-01-12T04:21:08.646Z,55.9
2019-01-12T04:21:59.266Z,55.8
2019-01-12T04:22:49.301Z,55.8
2019-01-12T04:23:39.432Z,55.8
2019-01-12T04:24:29.698Z,55.8
2019-01-12T04:25:37.383Z,55.8
2019-01-12T04:26:09.259Z,55.8
2019-01-12T04:26:59.620Z,55.8
2019-01-12T04:27:49.125Z,55.8
2019-01-12T04:28:39.273Z,55.8
2019-01-12T04:29:29.307Z,55.8
2019-01-12T04:30:19.631Z,55.8
2019-01-12T04:31:09.521Z,55.8
2019-01-12T04:31:59.187Z,55.8
2019-01-12T04:32:48.775Z,55.8
2019-01-12T04:33:39.282Z,55.8
2019-01-12T04:34:30.118Z,55.7
2019-01-12T04:35:20.436Z,55.7
2019-01-12T04:36:09.674Z,55.7
2019-01-12T04:36:59.704Z,55.7
2019-01-12T04:37:50.353Z,55.7
2019-01-12T04:38:39.616Z,55.7
2019-01-12T04:39:30.751Z,55.7
2019-01-12T04:40:20.567Z,55.7
2019-01-12T04:41:10.571Z,55.7
2019-01-12T04:42:00.886Z,55.7
2019-01-12T04:42:51.044Z,55.7
2019-01-12T04:43:40.433Z,55.7
2019-01-12T04:44:30.486Z,55.6
2019-01-12T04:45:21.101Z,55.6
2019-01-12T04:46:11.201Z,55.6
2019-01-12T05:03:24.885Z,55.5
2019-01-12T05:04:13.945Z,55.5
2019-01-12T05:05:06.209Z,55.5
2019-01-12T05:06:23.799Z,55.5
2019-01-12T05:07:06.041Z,55.5
2019-01-12T05:07:41.132Z,55.5
2019-01-12T05:08:32.329Z,55.4
2019-01-12T05:09:20.126Z,55.4
2019-01-12T05:10:11.406Z,55.4
2019-01-12T05:11:00.862Z,55.4
2019-01-12T05:12:23.107Z,55.4
2019-01-12T05:12:49.770Z,55.4
2019-01-12T05:13:40.210Z,55.4
2019-01-12T05:14:30.207Z,55.4
2019-01-12T05:15:19.880Z,55.4
2019-01-12T05:16:09.677Z,55.4
2019-01-12T05:17:00.695Z,55.4
2019-01-12T05:17:50.596Z,55.4
2019-01-12T05:18:39.828Z,55.4
2019-01-12T05:20:26.093Z,55.4
2019-01-12T05:21:31.126Z,55.4
2019-01-12T05:22:06.081Z,55.4
2019-01-12T05:22:56.721Z,55.4
2019-01-12T05:24:01.355Z,55.4
2019-01-12T09:17:47.220Z,53.5
2019-01-12T09:18:37.003Z,53.5
2019-01-12T09:19:27.361Z,53.6
2019-01-12T09:20:17.450Z,53.5
2019-01-12T09:21:07.718Z,53.5
2019-01-12T09:21:57.538Z,53.5
2019-01-12T09:22:47.822Z,53.5
2019-01-12T09:23:37.901Z,53.5
2019-01-12T09:24:27.935Z,53.5
2019-01-12T09:25:18.025Z,53.5
2019-01-12T09:26:08.090Z,53.5
2019-01-12T09:26:57.550Z,53.5
2019-01-12T09:27:47.883Z,53.5
2019-01-12T09:28:37.954Z,53.4
2019-01-12T09:29:28.007Z,53.4
2019-01-12T09:30:16.972Z,53.4
2019-01-12T09:31:08.100Z,53.4
2019-01-12T09:31:57.883Z,53.4
2019-01-12T09:32:48.221Z,53.4
2019-01-12T09:33:38.050Z,53.4
2019-01-12T09:34:28.670Z,53.4
2019-01-12T09:35:18.671Z,53.4
2019-01-12T09:36:08.479Z,53.4
2019-01-12T09:36:58.234Z,53.4
2019-01-12T09:37:48.862Z,53.4
2019-01-12T09:38:38.062Z,53.4
2019-01-12T09:39:28.674Z,53.4
2019-01-12T09:40:19.021Z,53.4
2019-01-12T09:41:08.789Z,53.4
2019-01-12T09:41:59.137Z,53.4
2019-01-12T09:42:49.204Z,53.4
2019-01-12T09:43:38.685Z,53.4
2019-01-12T09:44:29.325Z,53.3
2019-01-12T09:45:19.374Z,53.3
2019-01-12T09:46:09.412Z,53.3
2019-01-12T09:46:59.463Z,53.3
2019-01-12T09:47:49.265Z,53.3
2019-01-12T09:48:39.081Z,53.3
2019-01-12T09:49:29.627Z,53.3
2019-01-12T09:50:19.482Z,53.3
2019-01-12T09:51:09.480Z,53.3
2019-01-12T09:51:59.547Z,53.3
2019-01-12T09:52:49.603Z,53.3
2019-01-12T09:53:39.925Z,53.3
2019-01-12T09:54:29.713Z,53.3
2019-01-12T09:55:19.777Z,53.3
2019-01-12T09:56:09.814Z,53.3
2019-01-12T09:57:00.171Z,53.3
2019-01-12T09:57:50.062Z,53.3
2019-01-12T09:58:39.987Z,53.3
2019-01-12T09:59:31.594Z,53.3
2019-01-12T10:00:19.567Z,53.3
2019-01-12T10:01:10.156Z,53.3
2019-01-12T10:02:00.637Z,53.2
2019-01-12T10:02:50.481Z,53.3
2019-01-12T10:03:40.410Z,53.2
2019-01-12T10:04:30.677Z,53.2
2019-01-12T10:05:20.462Z,53.2
2019-01-12T10:06:10.786Z,53.2
2019-01-12T10:07:00.619Z,53.2
2019-01-12T10:07:50.684Z,53.2
2019-01-12T10:08:40.399Z,53.2
2019-01-12T10:09:30.726Z,53.1
2019-01-12T10:10:22.556Z,53.2
2019-01-12T10:11:10.841Z,53.1
2019-01-12T10:12:00.912Z,53.2
2019-01-12T10:12:50.738Z,53.1
2019-01-12T10:13:40.726Z,53.1
2019-01-12T10:14:31.074Z,53.1
2019-01-12T10:15:21.141Z,53.1
2019-01-12T10:16:11.178Z,53.1
2019-01-12T10:17:01.576Z,53.1
2019-01-12T10:17:51.580Z,53.1
2019-01-12T10:18:40.508Z,53.1
2019-01-12T10:19:31.411Z,53.1
2019-01-12T10:20:21.478Z,53.1
2019-01-12T10:21:11.513Z,53.1
2019-01-12T10:22:01.348Z,53.1
2019-01-12T10:22:50.810Z,53.1
2019-01-12T10:23:40.890Z,53.1
2019-01-12T10:24:32.028Z,53.1
2019-01-12T10:25:22.093Z,53
2019-01-12T10:26:12.170Z,53.1
2019-01-12T10:27:03.330Z,53
2019-01-12T10:27:52.245Z,53
2019-01-12T10:28:42.037Z,53
2019-01-12T10:29:32.097Z,53
2019-01-12T10:30:21.866Z,53
2019-01-12T10:31:11.913Z,53
2019-01-12T10:32:02.250Z,53
2019-01-12T10:32:52.598Z,53
2019-01-12T10:33:42.427Z,53
2019-01-12T10:34:32.702Z,52.9
2019-01-12T10:35:22.770Z,53
2019-01-12T10:36:12.825Z,52.9
2019-01-12T10:37:02.342Z,52.9
2019-01-12T10:37:52.670Z,52.9
2019-01-12T10:38:42.699Z,52.9
2019-01-12T10:39:32.747Z,52.9
2019-01-12T10:40:22.625Z,52.9
2019-01-12T10:41:13.217Z,52.9
2019-01-12T10:42:02.646Z,52.9
2019-01-12T10:42:53.319Z,52.9
2019-01-12T10:43:43.056Z,52.9
2019-01-12T10:44:33.141Z,52.9
2019-01-12T10:45:23.166Z,52.9
2019-01-12T10:46:12.669Z,52.9
2019-01-12T10:47:03.274Z,52.9
2019-01-12T10:47:53.613Z,52.9
2019-01-12T10:48:43.108Z,52.9
2019-01-12T10:49:32.616Z,52.8
2019-01-12T10:50:23.251Z,52.8
2019-01-12T10:51:13.073Z,52.8
2019-01-12T10:52:03.344Z,52.8
2019-01-12T10:52:53.939Z,52.8
2019-01-12T10:55:09.963Z,52.8
2019-01-12T10:55:59.767Z,52.8
2019-01-12T10:56:50.189Z,52.8
2019-01-12T10:57:39.869Z,52.8
2019-01-12T10:58:30.225Z,52.8
2019-01-12T10:59:19.983Z,52.8
2019-01-12T11:00:08.981Z,52.7
2019-01-12T11:00:59.866Z,52.7
2019-01-12T11:01:50.417Z,52.7
2019-01-12T11:02:39.665Z,52.7
2019-01-12T11:03:30.303Z,52.6
2019-01-12T11:04:20.588Z,52.6
2019-01-12T11:05:10.380Z,52.6
2019-01-12T11:05:59.910Z,52.6
2019-01-12T11:06:50.490Z,52.6
2019-01-12T11:07:41.898Z,52.6
2019-01-12T11:08:30.343Z,52.6
2019-01-12T11:09:20.105Z,52.5
2019-01-12T11:10:10.737Z,52.5
2019-01-12T11:11:00.227Z,52.5
2019-01-12T11:11:50.832Z,52.5
2019-01-12T11:12:40.890Z,52.4
2019-01-12T11:13:31.220Z,52.4
2019-01-12T11:14:21.293Z,52.4
2019-01-12T11:15:12.430Z,52.4
2019-01-12T11:16:01.110Z,52.4
2019-01-12T11:19:21.084Z,52.3
2019-01-12T11:20:11.132Z,52.3
2019-01-12T11:21:01.740Z,52.3
2019-01-12T11:21:51.785Z,52.3
2019-01-12T11:22:41.299Z,52.3
2019-01-12T11:23:31.617Z,52.2
2019-01-12T11:24:21.127Z,52.2
2019-01-12T11:25:12.020Z,52.2
2019-01-12T11:26:01.529Z,52.2
2019-01-12T11:26:52.152Z,52.1
2019-01-12T11:27:41.651Z,52.1
2019-01-12T11:28:31.710Z,52.1
2019-01-12T11:29:21.476Z,52.1
2019-01-12T11:30:12.129Z,52.1
2019-01-12T11:31:02.149Z,52.1
2019-01-12T11:31:51.713Z,52.1
2019-01-12T11:32:42.534Z,52.1
2019-01-12T11:33:31.561Z,52.1
2019-01-12T11:34:22.178Z,52.1
2019-01-12T11:35:11.944Z,52
2019-01-12T11:36:02.012Z,52
2019-01-12T11:36:51.836Z,52
2019-01-12T11:40:12.286Z,51.9
2019-01-12T11:41:02.351Z,51.9
2019-01-12T11:41:52.608Z,51.9
2019-01-12T11:42:43.263Z,51.8
2019-01-12T11:43:32.472Z,51.8
2019-01-12T11:44:22.565Z,51.7
2019-01-12T11:45:13.120Z,51.7
2019-01-12T11:46:03.207Z,51.6
2019-01-12T11:46:53.508Z,51.5
2019-01-12T11:47:42.758Z,51.4
2019-01-12T11:48:33.073Z,51.4
2019-01-12T11:49:23.137Z,51.4
2019-01-12T11:50:13.463Z,51.3
2019-01-12T11:51:03.242Z,51.1
2019-01-12T11:51:53.005Z,51
2019-01-12T11:52:43.924Z,50.9
2019-01-12T11:53:33.225Z,50.8
2019-01-12T11:54:23.752Z,50.6
2019-01-12T11:55:13.830Z,50.6
2019-01-12T11:56:04.137Z,50.4
2019-01-12T11:56:53.447Z,50.4
2019-01-12T11:57:43.790Z,50.3
2019-01-12T11:58:34.975Z,50.3
2019-01-12T11:59:23.612Z,50.3
2019-01-12T12:00:13.669Z,50.3
2019-01-12T12:01:03.182Z,50.2
2019-01-12T12:01:53.499Z,50.2
2019-01-12T12:02:43.583Z,50.2
2019-01-12T12:03:33.722Z,50.2
2019-01-12T12:04:23.476Z,50.1
2019-01-12T12:05:13.547Z,50.1
2019-01-12T12:06:03.317Z,50.1
2019-01-12T12:06:53.656Z,50.1
2019-01-12T12:07:43.634Z,50.1
2019-01-12T12:08:34.462Z,50.1
2019-01-12T12:09:25.049Z,50.1
2019-01-12T12:10:14.839Z,50.1
2019-01-12T12:11:04.071Z,50.1
2019-01-12T12:11:54.966Z,50
2019-01-12T12:12:45.293Z,50
2019-01-12T12:13:35.341Z,50
2019-01-12T12:14:25.143Z,50
2019-01-12T12:15:14.918Z,50
2019-01-12T12:16:07.489Z,50
2019-01-12T12:16:55.031Z,50
2019-01-12T12:17:45.628Z,50
2019-01-12T12:18:35.691Z,50
2019-01-12T12:19:25.752Z,50
2019-01-12T12:20:15.836Z,49.9
2019-01-12T12:21:05.877Z,49.9
2019-01-12T12:21:55.673Z,49.9
2019-01-12T12:22:45.700Z,49.9
2019-01-12T12:23:34.928Z,49.9
2019-01-12T12:24:25.835Z,49.8
2019-01-12T12:25:15.890Z,49.8
2019-01-12T12:26:06.223Z,49.8
2019-01-12T12:26:56.103Z,49.7
2019-01-12T12:27:46.060Z,49.7
2019-01-12T12:28:35.321Z,49.7
2019-01-12T12:29:26.197Z,49.6
2019-01-12T12:30:15.955Z,49.6
2019-01-12T12:31:06.277Z,49.6
2019-01-12T12:31:56.446Z,49.6
2019-01-12T12:32:46.402Z,49.6
2019-01-12T12:33:35.355Z,49.6
2019-01-12T12:34:26.575Z,49.6
2019-01-12T12:35:16.867Z,49.5
2019-01-12T12:36:06.083Z,49.5
2019-01-12T12:36:56.437Z,49.5
2019-01-12T12:37:46.490Z,49.4
2019-01-12T12:38:36.524Z,49.4
2019-01-12T12:39:26.877Z,49.4
2019-01-12T12:40:16.169Z,49.3
2019-01-12T12:41:06.517Z,49.3
2019-01-12T12:41:56.905Z,49.3
2019-01-12T12:42:47.112Z,49.3
2019-01-12T12:43:37.461Z,49.2
2019-01-12T12:44:27.544Z,49.2
2019-01-12T12:45:17.339Z,49.1
2019-01-12T12:46:07.356Z,49.1
2019-01-12T12:46:57.182Z,49.1
2019-01-12T12:47:47.459Z,49.1
2019-01-12T12:48:37.781Z,49.1
2019-01-12T12:49:27.554Z,49.1
2019-01-12T12:50:17.344Z,49.1
2019-01-12T12:51:07.952Z,49.1
2019-01-12T12:51:57.748Z,49
2019-01-12T12:52:47.246Z,49
2019-01-12T12:53:39.006Z,48.9
2019-01-12T12:54:27.633Z,48.9
2019-01-12T12:55:17.164Z,48.8
2019-01-12T12:56:08.303Z,48.8
2019-01-12T12:56:57.537Z,48.8
2019-01-12T12:57:47.866Z,48.8
2019-01-12T12:58:37.941Z,48.8
2019-01-12T12:59:27.828Z,48.7
2019-01-12T13:00:17.844Z,48.7
2019-01-12T13:01:08.375Z,48.6
2019-01-12T13:01:58.429Z,48.6
2019-01-12T13:02:48.505Z,48.6
2019-01-12T13:03:38.556Z,48.6
2019-01-12T13:04:28.348Z,48.6
2019-01-12T13:05:18.403Z,48.6
2019-01-12T13:06:08.445Z,48.6
2019-01-12T13:06:58.283Z,48.6
2019-01-12T13:07:49.108Z,48.6
2019-01-12T13:08:39.177Z,48.6
2019-01-12T13:09:28.956Z,48.6
2019-01-12T13:10:19.012Z,48.6
2019-01-12T13:11:08.263Z,48.5
2019-01-12T13:11:59.405Z,48.6
2019-01-12T13:12:48.641Z,48.5
2019-01-12T13:13:39.245Z,48.5
2019-01-12T13:14:29.580Z,48.5
2019-01-12T13:15:19.103Z,48.5
2019-01-12T13:16:09.447Z,48.5
2019-01-12T13:16:59.790Z,48.5
2019-01-12T13:17:48.992Z,48.4
2019-01-12T13:18:39.306Z,48.4
2019-01-12T13:19:29.439Z,48.4
2019-01-12T13:20:20.491Z,48.4
2019-01-12T13:21:09.517Z,48.4
2019-01-12T13:21:59.841Z,48.4
2019-01-12T13:22:51.197Z,48.4
2019-01-12T13:23:39.972Z,48.4
2019-01-12T13:24:30.002Z,48.4
2019-01-12T13:25:19.849Z,48.4
2019-01-12T13:26:10.122Z,48.4
2019-01-12T13:27:00.484Z,48.4
2019-01-12T13:27:49.963Z,48.4
2019-01-12T13:28:39.729Z,48.4
2019-01-12T13:29:30.054Z,48.4
2019-01-12T13:30:20.402Z,48.3
2019-01-12T13:31:10.188Z,48.3
2019-01-12T13:32:00.261Z,48.3
2019-01-12T13:32:50.289Z,48.3
2019-01-12T13:33:40.111Z,48.3
2019-01-12T13:34:30.696Z,48.3
2019-01-12T13:35:21.047Z,48.3
2019-01-12T13:36:10.536Z,48.3
2019-01-12T13:37:00.571Z,48.3
2019-01-12T13:37:51.246Z,48.3
2019-01-12T13:38:40.986Z,48.3
2019-01-12T13:39:36.390Z,48.3
2019-01-12T13:40:22.307Z,48.3
2019-01-12T13:41:10.983Z,48.2
2019-01-12T13:42:00.456Z,48.2
2019-01-12T13:42:50.433Z,48.2
2019-01-12T13:43:41.309Z,48.2
2019-01-12T13:44:30.828Z,48.1
2019-01-12T13:45:21.710Z,48.1
2019-01-12T13:46:11.203Z,48.1
2019-01-12T13:47:01.258Z,48.1
2019-01-12T13:47:51.618Z,48.1
2019-01-12T13:48:41.450Z,48.1
2019-01-12T13:49:31.452Z,48
2019-01-12T13:50:20.469Z,47.9
2019-01-12T13:51:11.832Z,47.9
2019-01-12T13:52:01.890Z,47.8
2019-01-12T13:52:52.258Z,47.8
2019-01-12T13:53:40.968Z,47.8
2019-01-12T13:54:32.117Z,47.8
2019-01-12T13:55:22.194Z,47.7
2019-01-12T13:56:11.897Z,47.7
2019-01-12T13:57:02.227Z,47.7
2019-01-12T13:57:53.112Z,47.6
2019-01-12T13:58:42.620Z,47.6
2019-01-12T13:59:32.407Z,47.6
2019-01-12T14:00:21.929Z,47.6
2019-01-12T14:01:12.812Z,47.6
2019-01-12T14:02:02.873Z,47.6
2019-01-12T14:02:52.849Z,47.6
2019-01-12T14:03:42.418Z,47.5
2019-01-12T14:04:32.474Z,47.5
2019-01-12T14:05:23.150Z,47.5
2019-01-12T14:06:13.135Z,47.5
2019-01-12T14:07:04.449Z,47.5
2019-01-12T14:08:00.738Z,47.4
2019-01-12T14:08:42.726Z,47.4
2019-01-12T14:09:47.011Z,47.4
2019-01-12T14:10:22.879Z,47.4
2019-01-12T14:11:12.686Z,47.4
2019-01-12T14:12:02.802Z,47.4
2019-01-12T14:12:52.859Z,47.4
2019-01-12T14:13:43.934Z,47.3
2019-01-12T14:14:33.429Z,47.3
2019-01-12T14:15:22.956Z,47.3
2019-01-12T14:16:12.811Z,47.3
2019-01-12T14:17:03.656Z,47.3
2019-01-12T14:17:53.666Z,47.3
2019-01-12T14:18:43.244Z,47.3
2019-01-12T14:19:33.783Z,47.3
2019-01-12T14:20:23.855Z,47.3
2019-01-12T14:21:13.949Z,47.3
2019-01-12T14:22:03.673Z,47.3
2019-01-12T14:22:54.295Z,47.3
2019-01-12T14:23:44.063Z,47.3
2019-01-12T14:24:34.406Z,47.2
2019-01-12T14:25:23.918Z,47.2
2019-01-12T14:26:13.973Z,47.2
2019-01-12T14:27:04.020Z,47.2
2019-01-12T14:27:58.425Z,47.2
2019-01-12T14:28:43.632Z,47.2
2019-01-12T14:29:34.195Z,47.2
2019-01-12T14:30:24.789Z,47.2
2019-01-12T14:31:14.585Z,47.2
2019-01-12T14:32:04.665Z,47.1
2019-01-12T14:32:54.728Z,47.2
2019-01-12T14:33:44.785Z,47.1
2019-01-12T14:34:34.578Z,47.1
2019-01-12T14:35:24.320Z,47.1
2019-01-12T14:36:14.640Z,47.1
2019-01-12T14:37:04.715Z,47.1
2019-01-12T14:37:55.325Z,47.1
2019-01-12T14:38:45.165Z,47.1
2019-01-12T14:39:34.885Z,47.1
2019-01-12T14:40:25.489Z,47.1
2019-01-12T14:41:14.772Z,47.1
2019-01-12T14:42:04.782Z,47.1
2019-01-12T14:42:55.102Z,47.1
2019-01-12T14:43:45.433Z,47.1
2019-01-12T14:44:34.520Z,47
2019-01-12T14:45:25.277Z,47
2019-01-12T14:46:15.362Z,47
2019-01-12T14:47:05.804Z,47
2019-01-12T14:47:55.727Z,47
2019-01-12T14:48:45.541Z,47
2019-01-12T14:49:36.137Z,47
2019-01-12T14:50:25.341Z,47
2019-01-12T14:51:15.772Z,46.9
2019-01-12T14:52:05.226Z,46.8
2019-01-12T14:52:55.534Z,46.8
2019-01-12T14:53:45.874Z,46.7
2019-01-12T14:54:36.469Z,46.7
2019-01-12T14:55:26.549Z,46.7
2019-01-12T14:56:16.031Z,46.6
2019-01-12T14:57:06.645Z,46.6
2019-01-12T14:58:05.256Z,46.6
2019-01-12T14:58:46.391Z,46.6
2019-01-12T14:59:35.786Z,46.6
2019-01-12T15:00:26.568Z,46.6
2019-01-12T15:01:16.818Z,46.6
2019-01-12T15:02:05.523Z,46.6
2019-01-12T15:02:56.348Z,46.6
2019-01-12T15:03:47.037Z,46.6
2019-01-12T15:04:36.961Z,46.6
2019-01-12T15:05:27.421Z,46.5
2019-01-12T15:06:17.023Z,46.5
2019-01-12T15:07:06.949Z,46.5
2019-01-12T15:07:57.105Z,46.4
2019-01-12T15:08:46.890Z,46.4
2019-01-12T15:09:36.933Z,46.4
2019-01-12T15:10:26.234Z,46.4
2019-01-12T15:11:17.336Z,46.4
2019-01-12T15:12:07.651Z,46.4
2019-01-12T15:12:57.427Z,46.4
2019-01-12T15:13:47.499Z,46.4
2019-01-12T15:14:37.830Z,46.4
2019-01-12T15:15:27.322Z,46.3
2019-01-12T15:16:17.927Z,46.3
2019-01-12T15:17:22.090Z,46.3
2019-01-12T15:17:57.762Z,46.3
2019-01-12T15:18:48.095Z,46.3
2019-01-12T15:19:37.875Z,46.3
2019-01-12T15:20:27.671Z,46.3
2019-01-12T15:21:17.434Z,46.3
2019-01-12T15:22:08.336Z,46.3
2019-01-12T15:22:58.397Z,46.3
2019-01-12T15:23:48.451Z,46.3
2019-01-12T15:24:38.218Z,46.3
2019-01-12T15:25:28.560Z,46.3
2019-01-12T15:26:17.773Z,46.3
2019-01-12T15:27:08.113Z,46.3
2019-01-12T15:27:58.486Z,46.2
2019-01-12T15:28:48.511Z,46.2
2019-01-12T15:29:38.560Z,46.2
2019-01-12T15:30:28.615Z,46.2
2019-01-12T15:31:21.281Z,46.2
2019-01-12T15:32:09.003Z,46.2
2019-01-12T15:32:58.518Z,46.1
2019-01-12T15:33:48.058Z,46.2
2019-01-12T15:34:38.893Z,46.1
2019-01-12T15:35:28.967Z,46.1
2019-01-12T15:36:19.005Z,46.1
2019-01-12T15:37:09.059Z,46.1
2019-01-12T15:37:59.127Z,46.1
2019-01-12T15:38:48.919Z,46.1
2019-01-12T15:39:39.234Z,46.1
2019-01-12T15:40:29.008Z,46.1
2019-01-12T15:41:19.348Z,46.1
2019-01-12T15:42:09.130Z,46.1
2019-01-12T15:42:59.165Z,46.1
2019-01-12T15:43:49.235Z,46.1
2019-01-12T15:44:39.292Z,46.1
2019-01-12T15:45:29.919Z,46.1
2019-01-12T15:46:19.960Z,46
2019-01-12T15:47:09.542Z,46
2019-01-12T15:47:59.519Z,46
2019-01-12T15:48:49.584Z,46
2019-01-12T15:49:40.192Z,46
2019-01-12T15:50:29.439Z,46
2019-01-12T15:51:20.291Z,46